Notice: A non well formed numeric value encountered in /home/www/horsholmvejr.dk/weather28/scriptsWD/tagsWD.php on line 282

Notice: A non well formed numeric value encountered in /home/www/horsholmvejr.dk/weather28/scriptsWD/tagsWD.php on line 283
Welcome to our new website - Welkom op onze vernieuwde website - Bienvenue sur notre nouveau site web - Willkommen auf unserer neuen Website
Check our progress frequently. Prüfen Sie unsere Fortschritte regelmäßig. Consultez notre progression fréquemment. Komt u straks nog eens terug


Hej. Vi har købt ny vejrstation, og er ved at bygge en helt ny vejrside.
Kom snart tilbage og følg udviklingen.
Du kan også komme med kommentarer eller evt. ønsker via "Kontakt" i bunden.



Webcam more information Webcam


Rain radar more information rain snow radar


Visit our other weather sites:

Template documentation
and downloads

And another site



Select another period ( hide this area )

Units Period Custom range Directly to
Metric English Both
Daily Weekly Monthly Yearly
use both date-selectors for a custom range
previous Day
With this date

WeatherUnderground graphs for this period ( click here )


Daily Summary for Wednesday 19 June 2019
Time Temp. ( °C ) Dew pt. ( °C ) Wind ( km/h ) from Gust ( km/h ) Pressure ( hPa ) Humid.( % ) Rainrate ( cm ) Solar ( W/m2 )
High27,5 18,9 35,2 SSE ( 698/1806 ) 40,2 1015,1 89 0,30 837
Average21,9 15,9 6,6 SSE #80/273 13,2 1011,8 70 0,60 349 #213/273
Low16,3 13,6 -   0,0 1008,4 47 -  
Daily Tabular details for Wednesday 19 June 2019
Time Temp. ( °C ) Dew pt. ( °C ) Wind ( km/h ) from Gust ( km/h ) Pressure ( hPa ) Humid.( % ) Rainrate ( cm ) Solar ( W/m2 )
00:04 19,5 14,9 3,2 SE 9,7 1015,1 75 0,30 -
00:09 19,1 15,0 4,7 SE 6,4 1015,1 77 0,30 -
00:14 18,7 15,0   Calm 3,2 1015,1 79 0,30 -
00:19 18,3 14,8 1,4 SE 3,2 1014,8 80 0,30 -
00:24 18,3 14,8 1,4 SE 9,7 1015,1 80 0,30 -
00:29 18,4 14,7 4,7 SSE 9,7 1015,1 79 0,30 -
00:34 18,6 14,9 1,4 SSE 1,6 1015,1 79 0,30 -
00:39 18,3 14,8   Calm 3,2 1015,1 80 0,30 -
00:44 18,3 15,0   Calm   1015,1 81 0,30 -
00:49 18,3 15,0 3,2 SSE 3,2 1014,8 81 0,30 -
00:54 18,1 15,0   Calm   1015,1 82 0,30 -
00:59 18,0 15,1 1,4 SSE 1,6 1015,1 83 0,30 -
01:04 18,0 15,1 1,4 SSE 4,8 1015,1 83 - -
01:09 18,2 14,9 1,4 SSE 4,8 1014,8 81 - -
01:14 18,2 14,9 1,4 SSE 4,8 1014,8 81 - -
01:19 18,3 14,8   Calm 1,6 1014,8 80 - -
01:24 18,1 14,8   Calm 1,6 1014,8 81 - -
01:29 17,9 14,8 1,4 SSE 3,2 1014,8 82 - -
01:34 18,0 14,9 1,4 SSE 3,2 1014,8 82 - -
01:39 17,9 15,0 3,2 SSE 3,2 1014,8 83 - -
01:44 17,9 14,8 1,4 SSE 4,8 1014,8 82 - -
01:49 18,1 15,0   Calm 1,6 1014,8 82 - -
01:54 17,9 15,0 1,4 SSE 3,2 1014,8 83 - -
01:59 17,8 14,9 1,4 SSE 4,8 1014,8 83 - -
02:04 17,8 14,9   Calm 3,2 1014,8 83 - -
02:09 17,9 15,0 3,2 SSE 6,4 1014,8 83 - -
02:14 18,2 14,9 6,4 SSW 11,3 1014,8 81 - -
02:19 18,3 14,6 11,1 SSE 22,5 1014,4 79 - -
02:24 18,3 14,4 22,7 SSE 22,5 1014,4 78 - -
02:29 18,5 13,8 9,7 South 22,5 1014,1 74 - -
02:34 18,8 13,6 9,7 SSE 16,1 1014,1 72 - -
02:39 19,1 14,4 4,7 SW 8,0 1014,4 74 - -
02:44 18,6 14,5 9,7 SW 9,7 1014,1 77 - -
02:49 18,2 14,5 1,4 SW 4,8 1014,1 79 - -
02:54 18,0 14,5 3,2 SW 4,8 1014,4 80 - -
02:59 17,8 14,5 6,4 SSE 9,7 1014,1 81 - -
03:04 17,9 14,6 14,3 SSE 16,1 1014,1 81 - -
03:09 18,1 14,8 13,0 South 19,3 1014,1 81 - -
03:14 18,1 14,8 3,2 SSE 17,7 1014,1 81 - -
03:19 18,1 15,0 3,2 SSW 6,4 1014,1 82 - -
03:24 17,8 14,9 1,4 SW 3,2 1014,1 83 - -
03:29 17,7 15,0   Calm 1,6 1014,1 84 - -
03:34 17,6 14,9 1,4 SW 4,8 1013,8 84 - -
03:39 17,6 15,0 1,4 SW 3,2 1013,8 85 - -
03:44 17,3 14,9 3,2 SW 3,2 1013,8 86 - -
03:49 17,2 14,8 1,4 SW 3,2 1013,8 86 - -
03:54 17,2 14,8 1,4 SW 3,2 1013,8 86 - -
03:59 17,2 14,8 1,4 SW 3,2 1013,8 86 - -
04:04 16,9 14,5   Calm 1,6 1013,8 86 - -
04:09 16,8 14,6 1,4 SW 1,6 1013,4 87 - -
04:14 16,8 14,6 1,4 SW 1,6 1013,4 87 - -
04:19 16,7 14,5   Calm 1,6 1013,4 87 - 5
04:24 16,7 14,5 1,4 SW 1,6 1013,4 87 - 5
04:29 16,7 14,5 3,2 SW 4,8 1013,4 87 - 7
04:34 16,5 14,3 1,4 SSE 4,8 1013,4 87 - 9
04:39 16,6 14,6 1,4 SE 1,6 1013,4 88 - 12
04:44 16,6 14,4 4,7 SE 4,8 1013,4 87 - 14
04:49 16,5 14,3   Calm 3,2 1013,4 87 - 16
04:54 16,4 14,4 3,2 SE 3,2 1013,4 88 - 16
04:59 16,4 14,4 1,4 SE 1,6 1013,4 88 - 14
05:04 16,4 14,6   Calm   1013,4 89 - 12
05:09 16,5 14,7   Calm 3,2 1013,4 89 - 14
05:14 16,5 14,7 1,4 SE 3,2 1013,4 89 - 16
05:19 16,4 14,6   Calm   1013,4 89 - 21
05:24 16,3 14,5 1,4 SE 4,8 1013,4 89 - 23
05:29 16,6 14,8 3,2 SE 4,8 1013,4 89 - 33
05:34 16,8 15,0   Calm 3,2 1013,4 89 - 42
05:39 16,9 15,1 6,4 SSW 6,4 1013,4 89 - 49
05:44 17,1 15,3   Calm 6,4 1013,4 89 - 51
05:49 17,2 15,2 3,2 SSW 4,8 1013,4 88 - 56
05:54 17,2 15,2 3,2 SSW 3,2 1013,4 88 - 76
05:59 17,4 15,4 4,7 East 6,4 1013,1 88 - 77
06:04 17,7 15,7   Calm 4,8 1013,1 88 - 74
06:09 17,7 15,5 3,2 East 9,7 1012,8 87 - 53
06:14 17,7 15,5 1,4 East 4,8 1012,8 87 - 26
06:19 17,6 15,4 4,7 East 9,7 1012,8 87 - 23
06:24 17,5 15,3 1,4 SSE 9,7 1012,8 87 - 21
06:29 17,5 15,3 3,2 SSE 6,4 1012,8 87 - 30
06:34 17,5 15,3   Calm 8,0 1012,8 87 - 33
06:39 17,6 15,4   Calm   1013,1 87 - 42
06:44 17,6 15,6 1,4 SSE 3,2 1013,1 88 - 58
06:49 17,7 15,5 1,4 SSE 3,2 1012,8 87 - 77
06:54 17,8 15,6 1,4 SSE 3,2 1013,1 87 - 102
06:59 18,0 15,8 1,4 SSE 4,8 1013,1 87 - 128
07:04 18,3 15,9 4,7 NE 6,4 1013,1 86 - 234
07:09 18,6 16,0 3,2 NE 4,8 1013,1 85 - 109
07:14 18,7 16,1 3,2 NE 3,2 1013,1 85 - 174
07:19 18,8 16,0 1,4 NE 4,8 1013,4 84 - 107
07:24 18,7 15,9 1,4 NE 4,8 1013,1 84 0,30 209
07:29 18,7 15,9 1,4 NE 6,4 1013,1 84 0,30 107
07:34 18,9 16,1 1,4 ENE 3,2 1012,8 84 0,30 113
07:39 18,8 16,0 3,2 ENE 4,8 1012,8 84 0,30 113
07:44 18,9 16,3 3,2 ENE 4,8 1013,1 85 0,30 197
07:49 19,1 16,1 1,4 ENE 6,4 1012,8 83 0,30 162
07:54 19,1 16,1 3,2 ENE 6,4 1012,8 83 0,30 174
07:59 19,3 16,1 1,4 ENE 3,2 1012,8 82 0,30 350
08:04 19,3 16,0 1,4 ENE 4,8 1012,8 81 0,30 114
08:09 19,2 16,1 1,4 ENE 4,8 1012,8 82 0,30 149
08:14 19,3 16,3 1,4 ENE 4,8 1012,8 83 0,30 279
08:19 19,8 16,4 1,4 ENE 6,4 1012,8 81 0,30 420
08:24 19,9 16,5 1,4 East 9,7 1012,8 81 - 209
08:29 20,0 16,6 3,2 East 6,4 1012,8 81 - 396
08:34 19,9 16,3 1,4 East 6,4 1012,8 80 - 156
08:39 19,8 16,2 1,4 East 3,2 1012,8 80 - 176
08:44 19,8 16,4 3,2 East 4,8 1012,8 81 - 230
08:49 20,0 16,4 4,7 East 6,4 1012,8 80 - 213
08:54 20,0 16,4 1,4 SE 6,4 1012,8 80 - 221
08:59 20,2 16,4 3,2 SE 6,4 1012,8 79 - 227
09:04 20,5 16,5 1,4 SE 4,8 1012,8 78 - 244
09:09 20,7 16,9   Calm 4,8 1012,8 79 - 304
09:14 20,8 16,8 1,4 East 8,0 1012,8 78 - 257
09:19 20,8 16,4 1,4 ESE 4,8 1012,8 76 - 253
09:24 20,8 16,8 3,2 ESE 6,4 1012,8 78 - 255
09:29 21,4 17,2 9,7 South 9,7 1012,8 77 - 719
09:34 21,6 17,0 1,4 SSE 6,4 1012,4 75 - 290
09:39 21,4 16,1 7,9 SSE 11,3 1012,4 72 - 230
09:44 21,3 16,7 3,2 South 9,7 1012,8 75 - 301
09:49 21,4 16,1 7,9 SSE 16,1 1012,8 72 - 278
09:54 21,6 16,8 4,7 WSW 11,3 1012,8 74 - 241
09:59 21,6 16,3 6,4 SSE 12,9 1012,8 72 - 267
10:04 21,8 16,5 4,7 SSE 9,7 1012,8 72 - 700
10:09 22,3 17,0 7,9 SSE 8,0 1012,8 72 - 693
10:14 22,5 17,0 3,2 SSE 4,8 1012,4 71 - 656
10:19 22,7 17,4 1,4 East 6,4 1012,4 72 - 619
10:24 22,9 17,1 6,4 SSE 9,7 1012,4 70 - 652
10:29 23,3 17,5 1,4 SSE 9,7 1012,4 70 - 701
10:34 23,5 17,0 3,2 SSE 6,4 1012,1 67 - 724
10:39 23,2 17,2 3,2 SE 8,0 1012,1 69 - 446
10:44 23,7 16,5 4,7 SSE 9,7 1012,1 64 - 668
10:49 24,0 18,0 6,4 East 11,3 1012,1 69 - 635
10:54 24,2 16,5 6,4 SE 6,4 1012,1 62 - 664
10:59 24,2 17,7 14,3 East 14,5 1012,1 67 - 729
11:04 24,4 17,6 13,0 ENE 12,9 1012,1 66 - 677
11:09 24,7 18,9 3,2 East 9,7 1012,1 70 - 531
11:14 24,7 18,6 4,7 SSE 6,4 1012,1 69 - 701
11:19 24,4 17,9 4,7 ESE 11,3 1012,1 67 - 608
11:24 24,2 18,2 3,2 East 6,4 1012,1 69 - 608
11:29 24,0 17,0 4,7 ESE 12,9 1012,1 65 - 647
11:34 24,1 17,1 4,7 East 9,7 1012,1 65 - 612
11:39 24,2 17,2 3,2 ESE 9,7 1012,1 65 - 512
11:44 24,0 16,5 1,4 SE 14,5 1012,1 63 - 504
11:49 23,9 17,9 1,4 East 4,8 1012,1 69 - 543
11:54 23,7 16,2 3,2 ESE 12,9 1012,1 63 - 628
11:59 24,1 18,5 4,7 East 12,9 1012,1 71 - 693
12:04 24,2 17,2 1,4 ESE 11,3 1012,1 65 - 613
12:09 24,1 17,1 3,2 SSE 9,7 1012,1 65 - 443
12:14 23,9 16,4 4,7 East 11,3 1012,1 63 - 541
12:19 24,2 17,2 3,2 SE 9,7 1012,1 65 - 693
12:24 24,4 17,1 1,4 ENE 6,4 1012,1 64 - 729
12:29 24,8 17,5 1,4 East 6,4 1012,1 64 - 703
12:34 25,0 17,2 6,4 ESE 16,1 1012,1 62 - 700
12:39 24,9 17,1 3,2 ESE 12,9 1011,7 62 - 647
12:44 24,7 17,4 4,7 SE 11,3 1011,7 64 - 568
12:49 25,2 18,2 11,1 SE 16,1 1011,7 65 - 809
12:54 25,2 18,2 14,3 SE 17,7 1011,7 65 - 791
12:59 25,4 16,8 25,7 ENE 25,7 1011,7 59 - 837
13:04 25,6 17,3 3,2 NE 9,7 1011,7 60 - 810
13:09 25,7 17,4 3,2 SSE 16,1 1011,7 60 - 726
13:14 25,8 17,7 16,3 SSE 16,1 1011,7 61 - 719
13:19 25,9 17,3 7,9 SE 16,1 1011,7 59 - 686
13:24 25,8 18,0 11,1 SE 17,7 1011,7 62 - 708
13:29 25,8 17,2 9,7 SSE 19,3 1011,7 59 - 721
13:34 25,6 17,3 4,7 East 24,1 1011,7 60 - 671
13:39 26,1 18,0 1,4 SE 14,5 1011,7 61 - 680
13:44 26,1 18,0   Calm 16,1 1011,4 61 - 703
13:49 26,6 18,5 4,7 SE 11,3 1011,4 61 - 796
13:54 26,7 17,7 3,2 East 16,1 1011,4 58 - 835
13:59 26,9 18,5 11,1 SE 14,5 1011,4 60 - 786
14:04 26,8 18,1 4,7 SE 17,7 1011,4 59 - 821
14:09 27,1 17,6 9,7 SSE 24,1 1011,4 56 - 809
14:14 27,1 17,3 7,9 SSE 27,4 1011,4 55 - 802
14:19 27,2 17,1   Calm 16,1 1011,1 54 - 795
14:24 27,4 17,0 11,1 SSE 17,7 1011,1 53 - 756
14:29 27,2 16,5 16,3 SSE 24,1 1011,1 52 - 752
14:34 27,1 16,4 11,1 SSE 20,9 1011,1 52 - 740
14:39 27,2 16,2 4,7 ENE 29,0 1011,1 51 - 728
14:44 27,5 15,2 14,3 SSE 29,0 1011,1 47 - 737
14:49 27,4 15,7 13,0 SE 29,0 1011,1 49 - 454
14:54 27,2 15,9 4,7 SE 24,1 1011,1 50 - 503
14:59 27,0 15,7 20,9 SE 29,0 1010,7 50 - 541
15:04 26,7 16,0 14,3 South 29,0 1010,7 52 - 737
15:09 27,2 16,2 6,4 ENE 24,1 1010,7 51 - 752
15:14 27,5 15,8 11,1 SE 20,9 1010,7 49 - 645
15:19 27,3 15,3 30,6 SSE 35,4 1010,7 48 - 707
15:24 27,2 15,9 3,2 SSE 17,7 1010,7 50 - 686
15:29 27,4 15,1 7,9 SE 25,7 1010,7 47 - 671
15:34 27,2 15,2 7,9 SE 32,2 1011,1 48 - 661
15:39 27,1 14,8 20,9 South 37,0 1011,1 47 - 647
15:44 26,9 14,6 3,2 SE 32,2 1010,7 47 - 635
15:49 27,1 14,8 22,7 SE 30,6 1010,7 47 - 624
15:54 27,1 15,5 7,9 SSE 32,2 1010,4 49 - 613
15:59 27,3 15,6 27,4 South 33,8 1010,7 49 - 605
16:04 27,1 14,8 9,7 SE 29,0 1010,4 47 - 596
16:09 27,2 15,6 16,3 SE 32,2 1010,4 49 - 585
16:14 26,9 15,0 13,0 SSE 27,4 1010,4 48 - 577
16:19 27,0 15,1 22,7 SSE 29,0 1010,4 48 - 570
16:24 27,1 15,1 19,5 South 29,0 1010,4 48 - 557
16:29 26,7 14,8 35,2 SSE 40,2 1010,4 48 - 548
16:34 26,7 15,1 20,9 SSE 25,7 1010,0 49 - 540
16:39 26,5 14,9 3,2 SSE 25,7 1010,0 49 - 527
16:44 26,7 14,8 16,3 SE 20,9 1010,0 48 - 519
16:49 26,9 15,0 22,7 South 30,6 1010,0 48 - 508
16:54 26,6 15,0 4,7 SE 20,9 1010,0 49 - 496
16:59 26,8 15,5 9,7 SE 27,4 1009,7 50 - 485
17:04 26,8 15,5 11,1 SE 22,5 1009,7 50 - 471
17:09 26,4 15,1 14,3 ESE 27,4 1009,7 50 - 461
17:14 26,3 15,4 24,1 SSE 24,1 1009,7 51 - 452
17:19 26,3 15,7 9,7 South 16,1 1009,7 52 - 441
17:24 26,3 15,7 17,7 SSE 25,7 1009,7 52 - 431
17:29 26,4 16,0 13,0 SSE 17,7 1009,7 53 - 418
17:34 26,6 16,2 9,7 SSE 19,3 1009,7 53 - 408
17:39 26,3 15,7 25,9 SSE 27,4 1010,0 52 - 397
17:44 26,2 15,6 16,3 SE 20,9 1010,0 52 - 385
17:49 26,2 15,9 7,9 SSE 20,9 1010,0 53 - 378
17:54 26,2 15,9 9,7 SSE 17,7 1009,7 53 - 360
17:59 26,0 16,0 19,5 SSE 25,7 1009,7 54 - 346
18:04 25,9 15,9 11,1 SE 22,5 1009,7 54 - 339
18:09 25,8 16,1 4,7 SE 16,1 1009,7 55 - 330
18:14 25,7 15,7 9,7 SSW 22,5 1009,7 54 - 325
18:19 25,7 16,0 14,3 SSE 27,4 1009,7 55 - 315
18:24 25,7 16,0 4,7 East 14,5 1009,7 55 - 309
18:29 25,6 15,9 13,0 South 22,5 1009,4 55 - 299
18:34 25,4 15,7 13,0 SE 20,9 1009,4 55 - 287
18:39 25,3 15,9 14,3 SE 24,1 1009,4 56 - 260
18:44 25,1 16,0 13,0 SE 20,9 1009,4 57 - 243
18:49 25,0 15,9 14,3 SSE 17,7 1009,4 57 - 220
18:54 24,9 16,1 13,0 ESE 17,7 1009,4 58 - 121
18:59 24,6 15,8 19,5 SE 25,7 1009,4 58 - 123
19:04 24,3 15,5 6,4 SE 24,1 1009,0 58 - 113
19:09 24,2 15,7 7,9 South 20,9 1009,0 59 - 90
19:14 23,9 15,7 11,1 SSE 19,3 1009,0 60 - 95
19:19 23,8 15,8 4,7 SE 24,1 1009,0 61 - 86
19:24 23,7 15,7 7,9 SE 17,7 1009,0 61 - 83
19:29 23,6 15,6 4,7 SE 9,7 1009,0 61 - 84
19:34 23,5 15,8 9,7 SSE 12,9 1009,0 62 - 86
19:39 23,4 15,7 4,7 SSE 17,7 1009,0 62 - 90
19:44 23,4 15,7 3,2 ESE 14,5 1009,0 62 - 84
19:49 23,3 15,9 6,4 SSE 12,9 1008,7 63 - 79
19:54 23,2 15,8 6,4 SE 17,7 1008,7 63 - 70
19:59 23,0 16,1 4,7 ESE 11,3 1008,7 65 - 62
20:04 22,8 16,1 1,4 SSE 11,3 1008,7 66 - 56
20:09 22,7 16,0 3,2 SE 8,0 1008,7 66 - 49
20:14 22,5 16,1 9,7 SSE 14,5 1008,7 67 - 49
20:19 22,4 16,2 14,3 ESE 14,5 1008,7 68 - 44
20:24 22,3 16,3 3,2 SE 12,9 1008,7 69 - 42
20:29 22,2 16,5 14,3 South 16,1 1008,7 70 - 37
20:34 22,1 16,4 14,3 SSE 20,9 1008,7 70 - 33
20:39 22,0 16,5 11,1 SE 14,5 1008,7 71 - 30
20:44 21,9 16,4 7,9 SSE 16,1 1008,7 71 - 25
20:49 21,8 16,3 14,3 SE 22,5 1008,4 71 - 21
20:54 21,7 16,4 7,9 SE 19,3 1008,7 72 - 18
20:59 21,6 16,3 11,1 South 20,9 1008,4 72 - 16
21:04 21,6 16,3 11,1 SE 16,1 1008,7 72 - 14
21:09 21,5 16,5 14,3 SE 19,3 1008,7 73 - 14
21:14 21,5 16,5 3,2 SE 9,7 1008,7 73 - 14
21:19 21,3 16,3 11,1 SE 17,7 1008,4 73 - 12
21:24 21,4 16,4 3,2 SE 14,5 1008,4 73 - 12
21:29 21,3 16,3 6,4 ESE 17,7 1008,4 73 - 12
21:34 21,3 16,3 6,4 ESE 24,1 1008,4 73 - 11
21:39 21,3 16,3   Calm 30,6 1008,4 73 - 11
21:44 21,3 16,3 11,1 South 24,1 1008,4 73 - 9
21:49 21,4 16,4 9,7 East 29,0 1008,4 73 - 7
21:54 21,3 16,3 9,7 SSE 20,9 1008,4 73 - 5
21:59 21,3 16,3 9,7 SSE 24,1 1008,4 73 - 5
22:04 21,2 16,2 16,3 SSE 19,3 1008,4 73 - -
22:09 21,2 16,2 14,3 SSW 25,7 1008,4 73 - -
22:14 21,2 16,2 13,0 SSE 19,3 1008,4 73 - -
22:19 21,3 16,0 9,7 ESE 24,1 1008,4 72 - -
22:24 21,4 16,4 14,3 ESE 25,7 1008,4 73 - -
22:29 21,4 16,4 6,4 SE 25,7 1008,4 73 - -
22:34 21,4 16,4 20,9 SSE 20,9 1008,4 73 - -
22:39 21,4 16,4 14,3 SE 14,5 1008,4 73 - -
22:44 21,4 16,4 3,2 East 17,7 1008,4 73 - -
Daily Summary for Wednesday 19 June 2019
Time Temp. ( °C ) Dew pt. ( °C ) Wind ( km/h ) from Gust ( km/h ) Pressure ( hPa ) Humid.( % ) Rainrate ( cm ) Solar ( W/m2 )
High27,5 18,9 35,2 SSE ( 698/1806 ) 40,2 1015,1 89 0,30 837
Average21,9 15,9 6,6 SSE #80/273 13,2 1011,8 70 0,60 349 #213/273
Low16,3 13,6 -   0,0 1008,4 47 -  
Daily Tabular details for Wednesday 19 June 2019
Time Temp. ( °C ) Dew pt. ( °C ) Wind ( km/h ) from Gust ( km/h ) Pressure ( hPa ) Humid.( % ) Rainrate ( cm ) Solar ( W/m2 )
00:04 19,5 14,9 3,2 SE 9,7 1015,1 75 0,30 -
00:09 19,1 15,0 4,7 SE 6,4 1015,1 77 0,30 -
00:14 18,7 15,0   Calm 3,2 1015,1 79 0,30 -
00:19 18,3 14,8 1,4 SE 3,2 1014,8 80 0,30 -
00:24 18,3 14,8 1,4 SE 9,7 1015,1 80 0,30 -
00:29 18,4 14,7 4,7 SSE 9,7 1015,1 79 0,30 -
00:34 18,6 14,9 1,4 SSE 1,6 1015,1 79 0,30 -
00:39 18,3 14,8   Calm 3,2 1015,1 80 0,30 -
00:44 18,3 15,0   Calm   1015,1 81 0,30 -
00:49 18,3 15,0 3,2 SSE 3,2 1014,8 81 0,30 -
00:54 18,1 15,0   Calm   1015,1 82 0,30 -
00:59 18,0 15,1 1,4 SSE 1,6 1015,1 83 0,30 -
01:04 18,0 15,1 1,4 SSE 4,8 1015,1 83 - -
01:09 18,2 14,9 1,4 SSE 4,8 1014,8 81 - -
01:14 18,2 14,9 1,4 SSE 4,8 1014,8 81 - -
01:19 18,3 14,8   Calm 1,6 1014,8 80 - -
01:24 18,1 14,8   Calm 1,6 1014,8 81 - -
01:29 17,9 14,8 1,4 SSE 3,2 1014,8 82 - -
01:34 18,0 14,9 1,4 SSE 3,2 1014,8 82 - -
01:39 17,9 15,0 3,2 SSE 3,2 1014,8 83 - -
01:44 17,9 14,8 1,4 SSE 4,8 1014,8 82 - -
01:49 18,1 15,0   Calm 1,6 1014,8 82 - -
01:54 17,9 15,0 1,4 SSE 3,2 1014,8 83 - -
01:59 17,8 14,9 1,4 SSE 4,8 1014,8 83 - -
02:04 17,8 14,9   Calm 3,2 1014,8 83 - -
02:09 17,9 15,0 3,2 SSE 6,4 1014,8 83 - -
02:14 18,2 14,9 6,4 SSW 11,3 1014,8 81 - -
02:19 18,3 14,6 11,1 SSE 22,5 1014,4 79 - -
02:24 18,3 14,4 22,7 SSE 22,5 1014,4 78 - -
02:29 18,5 13,8 9,7 South 22,5 1014,1 74 - -
02:34 18,8 13,6 9,7 SSE 16,1 1014,1 72 - -
02:39 19,1 14,4 4,7 SW 8,0 1014,4 74 - -
02:44 18,6 14,5 9,7 SW 9,7 1014,1 77 - -
02:49 18,2 14,5 1,4 SW 4,8 1014,1 79 - -
02:54 18,0 14,5 3,2 SW 4,8 1014,4 80 - -
02:59 17,8 14,5 6,4 SSE 9,7 1014,1 81 - -
03:04 17,9 14,6 14,3 SSE 16,1 1014,1 81 - -
03:09 18,1 14,8 13,0 South 19,3 1014,1 81 - -
03:14 18,1 14,8 3,2 SSE 17,7 1014,1 81 - -
03:19 18,1 15,0 3,2 SSW 6,4 1014,1 82 - -
03:24 17,8 14,9 1,4 SW 3,2 1014,1 83 - -
03:29 17,7 15,0   Calm 1,6 1014,1 84 - -
03:34 17,6 14,9 1,4 SW 4,8 1013,8 84 - -
03:39 17,6 15,0 1,4 SW 3,2 1013,8 85 - -
03:44 17,3 14,9 3,2 SW 3,2 1013,8 86 - -
03:49 17,2 14,8 1,4 SW 3,2 1013,8 86 - -
03:54 17,2 14,8 1,4 SW 3,2 1013,8 86 - -
03:59 17,2 14,8 1,4 SW 3,2 1013,8 86 - -
04:04 16,9 14,5   Calm 1,6 1013,8 86 - -
04:09 16,8 14,6 1,4 SW 1,6 1013,4 87 - -
04:14 16,8 14,6 1,4 SW 1,6 1013,4 87 - -
04:19 16,7 14,5   Calm 1,6 1013,4 87 - 5
04:24 16,7 14,5 1,4 SW 1,6 1013,4 87 - 5
04:29 16,7 14,5 3,2 SW 4,8 1013,4 87 - 7
04:34 16,5 14,3 1,4 SSE 4,8 1013,4 87 - 9
04:39 16,6 14,6 1,4 SE 1,6 1013,4 88 - 12
04:44 16,6 14,4 4,7 SE 4,8 1013,4 87 - 14
04:49 16,5 14,3   Calm 3,2 1013,4 87 - 16
04:54 16,4 14,4 3,2 SE 3,2 1013,4 88 - 16
04:59 16,4 14,4 1,4 SE 1,6 1013,4 88 - 14
05:04 16,4 14,6   Calm   1013,4 89 - 12
05:09 16,5 14,7   Calm 3,2 1013,4 89 - 14
05:14 16,5 14,7 1,4 SE 3,2 1013,4 89 - 16
05:19 16,4 14,6   Calm   1013,4 89 - 21
05:24 16,3 14,5 1,4 SE 4,8 1013,4 89 - 23
05:29 16,6 14,8 3,2 SE 4,8 1013,4 89 - 33
05:34 16,8 15,0   Calm 3,2 1013,4 89 - 42
05:39 16,9 15,1 6,4 SSW 6,4 1013,4 89 - 49
05:44 17,1 15,3   Calm 6,4 1013,4 89 - 51
05:49 17,2 15,2 3,2 SSW 4,8 1013,4 88 - 56
05:54 17,2 15,2 3,2 SSW 3,2 1013,4 88 - 76
05:59 17,4 15,4 4,7 East 6,4 1013,1 88 - 77
06:04 17,7 15,7   Calm 4,8 1013,1 88 - 74
06:09 17,7 15,5 3,2 East 9,7 1012,8 87 - 53
06:14 17,7 15,5 1,4 East 4,8 1012,8 87 - 26
06:19 17,6 15,4 4,7 East 9,7 1012,8 87 - 23
06:24 17,5 15,3 1,4 SSE 9,7 1012,8 87 - 21
06:29 17,5 15,3 3,2 SSE 6,4 1012,8 87 - 30
06:34 17,5 15,3   Calm 8,0 1012,8 87 - 33
06:39 17,6 15,4   Calm   1013,1 87 - 42
06:44 17,6 15,6 1,4 SSE 3,2 1013,1 88 - 58
06:49 17,7 15,5 1,4 SSE 3,2 1012,8 87 - 77
06:54 17,8 15,6 1,4 SSE 3,2 1013,1 87 - 102
06:59 18,0 15,8 1,4 SSE 4,8 1013,1 87 - 128
07:04 18,3 15,9 4,7 NE 6,4 1013,1 86 - 234
07:09 18,6 16,0 3,2 NE 4,8 1013,1 85 - 109
07:14 18,7 16,1 3,2 NE 3,2 1013,1 85 - 174
07:19 18,8 16,0 1,4 NE 4,8 1013,4 84 - 107
07:24 18,7 15,9 1,4 NE 4,8 1013,1 84 0,30 209
07:29 18,7 15,9 1,4 NE 6,4 1013,1 84 0,30 107
07:34 18,9 16,1 1,4 ENE 3,2 1012,8 84 0,30 113
07:39 18,8 16,0 3,2 ENE 4,8 1012,8 84 0,30 113
07:44 18,9 16,3 3,2 ENE 4,8 1013,1 85 0,30 197
07:49 19,1 16,1 1,4 ENE 6,4 1012,8 83 0,30 162
07:54 19,1 16,1 3,2 ENE 6,4 1012,8 83 0,30 174
07:59 19,3 16,1 1,4 ENE 3,2 1012,8 82 0,30 350
08:04 19,3 16,0 1,4 ENE 4,8 1012,8 81 0,30 114
08:09 19,2 16,1 1,4 ENE 4,8 1012,8 82 0,30 149
08:14 19,3 16,3 1,4 ENE 4,8 1012,8 83 0,30 279
08:19 19,8 16,4 1,4 ENE 6,4 1012,8 81 0,30 420
08:24 19,9 16,5 1,4 East 9,7 1012,8 81 - 209
08:29 20,0 16,6 3,2 East 6,4 1012,8 81 - 396
08:34 19,9 16,3 1,4 East 6,4 1012,8 80 - 156
08:39 19,8 16,2 1,4 East 3,2 1012,8 80 - 176
08:44 19,8 16,4 3,2 East 4,8 1012,8 81 - 230
08:49 20,0 16,4 4,7 East 6,4 1012,8 80 - 213
08:54 20,0 16,4 1,4 SE 6,4 1012,8 80 - 221
08:59 20,2 16,4 3,2 SE 6,4 1012,8 79 - 227
09:04 20,5 16,5 1,4 SE 4,8 1012,8 78 - 244
09:09 20,7 16,9   Calm 4,8 1012,8 79 - 304
09:14 20,8 16,8 1,4 East 8,0 1012,8 78 - 257
09:19 20,8 16,4 1,4 ESE 4,8 1012,8 76 - 253
09:24 20,8 16,8 3,2 ESE 6,4 1012,8 78 - 255
09:29 21,4 17,2 9,7 South 9,7 1012,8 77 - 719
09:34 21,6 17,0 1,4 SSE 6,4 1012,4 75 - 290
09:39 21,4 16,1 7,9 SSE 11,3 1012,4 72 - 230
09:44 21,3 16,7 3,2 South 9,7 1012,8 75 - 301
09:49 21,4 16,1 7,9 SSE 16,1 1012,8 72 - 278
09:54 21,6 16,8 4,7 WSW 11,3 1012,8 74 - 241
09:59 21,6 16,3 6,4 SSE 12,9 1012,8 72 - 267
10:04 21,8 16,5 4,7 SSE 9,7 1012,8 72 - 700
10:09 22,3 17,0 7,9 SSE 8,0 1012,8 72 - 693
10:14 22,5 17,0 3,2 SSE 4,8 1012,4 71 - 656
10:19 22,7 17,4 1,4 East 6,4 1012,4 72 - 619
10:24 22,9 17,1 6,4 SSE 9,7 1012,4 70 - 652
10:29 23,3 17,5 1,4 SSE 9,7 1012,4 70 - 701
10:34 23,5 17,0 3,2 SSE 6,4 1012,1 67 - 724
10:39 23,2 17,2 3,2 SE 8,0 1012,1 69 - 446
10:44 23,7 16,5 4,7 SSE 9,7 1012,1 64 - 668
10:49 24,0 18,0 6,4 East 11,3 1012,1 69 - 635
10:54 24,2 16,5 6,4 SE 6,4 1012,1 62 - 664
10:59 24,2 17,7 14,3 East 14,5 1012,1 67 - 729
11:04 24,4 17,6 13,0 ENE 12,9 1012,1 66 - 677
11:09 24,7 18,9 3,2 East 9,7 1012,1 70 - 531
11:14 24,7 18,6 4,7 SSE 6,4 1012,1 69 - 701
11:19 24,4 17,9 4,7 ESE 11,3 1012,1 67 - 608
11:24 24,2 18,2 3,2 East 6,4 1012,1 69 - 608
11:29 24,0 17,0 4,7 ESE 12,9 1012,1 65 - 647
11:34 24,1 17,1 4,7 East 9,7 1012,1 65 - 612
11:39 24,2 17,2 3,2 ESE 9,7 1012,1 65 - 512
11:44 24,0 16,5 1,4 SE 14,5 1012,1 63 - 504
11:49 23,9 17,9 1,4 East 4,8 1012,1 69 - 543
11:54 23,7 16,2 3,2 ESE 12,9 1012,1 63 - 628
11:59 24,1 18,5 4,7 East 12,9 1012,1 71 - 693
12:04 24,2 17,2 1,4 ESE 11,3 1012,1 65 - 613
12:09 24,1 17,1 3,2 SSE 9,7 1012,1 65 - 443
12:14 23,9 16,4 4,7 East 11,3 1012,1 63 - 541
12:19 24,2 17,2 3,2 SE 9,7 1012,1 65 - 693
12:24 24,4 17,1 1,4 ENE 6,4 1012,1 64 - 729
12:29 24,8 17,5 1,4 East 6,4 1012,1 64 - 703
12:34 25,0 17,2 6,4 ESE 16,1 1012,1 62 - 700
12:39 24,9 17,1 3,2 ESE 12,9 1011,7 62 - 647
12:44 24,7 17,4 4,7 SE 11,3 1011,7 64 - 568
12:49 25,2 18,2 11,1 SE 16,1 1011,7 65 - 809
12:54 25,2 18,2 14,3 SE 17,7 1011,7 65 - 791
12:59 25,4 16,8 25,7 ENE 25,7 1011,7 59 - 837
13:04 25,6 17,3 3,2 NE 9,7 1011,7 60 - 810
13:09 25,7 17,4 3,2 SSE 16,1 1011,7 60 - 726
13:14 25,8 17,7 16,3 SSE 16,1 1011,7 61 - 719
13:19 25,9 17,3 7,9 SE 16,1 1011,7 59 - 686
13:24 25,8 18,0 11,1 SE 17,7 1011,7 62 - 708
13:29 25,8 17,2 9,7 SSE 19,3 1011,7 59 - 721
13:34 25,6 17,3 4,7 East 24,1 1011,7 60 - 671
13:39 26,1 18,0 1,4 SE 14,5 1011,7 61 - 680
13:44 26,1 18,0   Calm 16,1 1011,4 61 - 703
13:49 26,6 18,5 4,7 SE 11,3 1011,4 61 - 796
13:54 26,7 17,7 3,2 East 16,1 1011,4 58 - 835
13:59 26,9 18,5 11,1 SE 14,5 1011,4 60 - 786
14:04 26,8 18,1 4,7 SE 17,7 1011,4 59 - 821
14:09 27,1 17,6 9,7 SSE 24,1 1011,4 56 - 809
14:14 27,1 17,3 7,9 SSE 27,4 1011,4 55 - 802
14:19 27,2 17,1   Calm 16,1 1011,1 54 - 795
14:24 27,4 17,0 11,1 SSE 17,7 1011,1 53 - 756
14:29 27,2 16,5 16,3 SSE 24,1 1011,1 52 - 752
14:34 27,1 16,4 11,1 SSE 20,9 1011,1 52 - 740
14:39 27,2 16,2 4,7 ENE 29,0 1011,1 51 - 728
14:44 27,5 15,2 14,3 SSE 29,0 1011,1 47 - 737
14:49 27,4 15,7 13,0 SE 29,0 1011,1 49 - 454
14:54 27,2 15,9 4,7 SE 24,1 1011,1 50 - 503
14:59 27,0 15,7 20,9 SE 29,0 1010,7 50 - 541
15:04 26,7 16,0 14,3 South 29,0 1010,7 52 - 737
15:09 27,2 16,2 6,4 ENE 24,1 1010,7 51 - 752
15:14 27,5 15,8 11,1 SE 20,9 1010,7 49 - 645
15:19 27,3 15,3 30,6 SSE 35,4 1010,7 48 - 707
15:24 27,2 15,9 3,2 SSE 17,7 1010,7 50 - 686
15:29 27,4 15,1 7,9 SE 25,7 1010,7 47 - 671
15:34 27,2 15,2 7,9 SE 32,2 1011,1 48 - 661
15:39 27,1 14,8 20,9 South 37,0 1011,1 47 - 647
15:44 26,9 14,6 3,2 SE 32,2 1010,7 47 - 635
15:49 27,1 14,8 22,7 SE 30,6 1010,7 47 - 624
15:54 27,1 15,5 7,9 SSE 32,2 1010,4 49 - 613
15:59 27,3 15,6 27,4 South 33,8 1010,7 49 - 605
16:04 27,1 14,8 9,7 SE 29,0 1010,4 47 - 596
16:09 27,2 15,6 16,3 SE 32,2 1010,4 49 - 585
16:14 26,9 15,0 13,0 SSE 27,4 1010,4 48 - 577
16:19 27,0 15,1 22,7 SSE 29,0 1010,4 48 - 570
16:24 27,1 15,1 19,5 South 29,0 1010,4 48 - 557
16:29 26,7 14,8 35,2 SSE 40,2 1010,4 48 - 548
16:34 26,7 15,1 20,9 SSE 25,7 1010,0 49 - 540
16:39 26,5 14,9 3,2 SSE 25,7 1010,0 49 - 527
16:44 26,7 14,8 16,3 SE 20,9 1010,0 48 - 519
16:49 26,9 15,0 22,7 South 30,6 1010,0 48 - 508
16:54 26,6 15,0 4,7 SE 20,9 1010,0 49 - 496
16:59 26,8 15,5 9,7 SE 27,4 1009,7 50 - 485
17:04 26,8 15,5 11,1 SE 22,5 1009,7 50 - 471
17:09 26,4 15,1 14,3 ESE 27,4 1009,7 50 - 461
17:14 26,3 15,4 24,1 SSE 24,1 1009,7 51 - 452
17:19 26,3 15,7 9,7 South 16,1 1009,7 52 - 441
17:24 26,3 15,7 17,7 SSE 25,7 1009,7 52 - 431
17:29 26,4 16,0 13,0 SSE 17,7 1009,7 53 - 418
17:34 26,6 16,2 9,7 SSE 19,3 1009,7 53 - 408
17:39 26,3 15,7 25,9 SSE 27,4 1010,0 52 - 397
17:44 26,2 15,6 16,3 SE 20,9 1010,0 52 - 385
17:49 26,2 15,9 7,9 SSE 20,9 1010,0 53 - 378
17:54 26,2 15,9 9,7 SSE 17,7 1009,7 53 - 360
17:59 26,0 16,0 19,5 SSE 25,7 1009,7 54 - 346
18:04 25,9 15,9 11,1 SE 22,5 1009,7 54 - 339
18:09 25,8 16,1 4,7 SE 16,1 1009,7 55 - 330
18:14 25,7 15,7 9,7 SSW 22,5 1009,7 54 - 325
18:19 25,7 16,0 14,3 SSE 27,4 1009,7 55 - 315
18:24 25,7 16,0 4,7 East 14,5 1009,7 55 - 309
18:29 25,6 15,9 13,0 South 22,5 1009,4 55 - 299
18:34 25,4 15,7 13,0 SE 20,9 1009,4 55 - 287
18:39 25,3 15,9 14,3 SE 24,1 1009,4 56 - 260
18:44 25,1 16,0 13,0 SE 20,9 1009,4 57 - 243
18:49 25,0 15,9 14,3 SSE 17,7 1009,4 57 - 220
18:54 24,9 16,1 13,0 ESE 17,7 1009,4 58 - 121
18:59 24,6 15,8 19,5 SE 25,7 1009,4 58 - 123
19:04 24,3 15,5 6,4 SE 24,1 1009,0 58 - 113
19:09 24,2 15,7 7,9 South 20,9 1009,0 59 - 90
19:14 23,9 15,7 11,1 SSE 19,3 1009,0 60 - 95
19:19 23,8 15,8 4,7 SE 24,1 1009,0 61 - 86
19:24 23,7 15,7 7,9 SE 17,7 1009,0 61 - 83
19:29 23,6 15,6 4,7 SE 9,7 1009,0 61 - 84
19:34 23,5 15,8 9,7 SSE 12,9 1009,0 62 - 86
19:39 23,4 15,7 4,7 SSE 17,7 1009,0 62 - 90
19:44 23,4 15,7 3,2 ESE 14,5 1009,0 62 - 84
19:49 23,3 15,9 6,4 SSE 12,9 1008,7 63 - 79
19:54 23,2 15,8 6,4 SE 17,7 1008,7 63 - 70
19:59 23,0 16,1 4,7 ESE 11,3 1008,7 65 - 62
20:04 22,8 16,1 1,4 SSE 11,3 1008,7 66 - 56
20:09 22,7 16,0 3,2 SE 8,0 1008,7 66 - 49
20:14 22,5 16,1 9,7 SSE 14,5 1008,7 67 - 49
20:19 22,4 16,2 14,3 ESE 14,5 1008,7 68 - 44
20:24 22,3 16,3 3,2 SE 12,9 1008,7 69 - 42
20:29 22,2 16,5 14,3 South 16,1 1008,7 70 - 37
20:34 22,1 16,4 14,3 SSE 20,9 1008,7 70 - 33
20:39 22,0 16,5 11,1 SE 14,5 1008,7 71 - 30
20:44 21,9 16,4 7,9 SSE 16,1 1008,7 71 - 25
20:49 21,8 16,3 14,3 SE 22,5 1008,4 71 - 21
20:54 21,7 16,4 7,9 SE 19,3 1008,7 72 - 18
20:59 21,6 16,3 11,1 South 20,9 1008,4 72 - 16
21:04 21,6 16,3 11,1 SE 16,1 1008,7 72 - 14
21:09 21,5 16,5 14,3 SE 19,3 1008,7 73 - 14
21:14 21,5 16,5 3,2 SE 9,7 1008,7 73 - 14
21:19 21,3 16,3 11,1 SE 17,7 1008,4 73 - 12
21:24 21,4 16,4 3,2 SE 14,5 1008,4 73 - 12
21:29 21,3 16,3 6,4 ESE 17,7 1008,4 73 - 12
21:34 21,3 16,3 6,4 ESE 24,1 1008,4 73 - 11
21:39 21,3 16,3   Calm 30,6 1008,4 73 - 11
21:44 21,3 16,3 11,1 South 24,1 1008,4 73 - 9
21:49 21,4 16,4 9,7 East 29,0 1008,4 73 - 7
21:54 21,3 16,3 9,7 SSE 20,9 1008,4 73 - 5
21:59 21,3 16,3 9,7 SSE 24,1 1008,4 73 - 5
22:04 21,2 16,2 16,3 SSE 19,3 1008,4 73 - -
22:09 21,2 16,2 14,3 SSW 25,7 1008,4 73 - -
22:14 21,2 16,2 13,0 SSE 19,3 1008,4 73 - -
22:19 21,3 16,0 9,7 ESE 24,1 1008,4 72 - -
22:24 21,4 16,4 14,3 ESE 25,7 1008,4 73 - -
22:29 21,4 16,4 6,4 SE 25,7 1008,4 73 - -
22:34 21,4 16,4 20,9 SSE 20,9 1008,4 73 - -
22:39 21,4 16,4 14,3 SE 14,5 1008,4 73 - -
22:44 21,4 16,4 3,2 East 17,7 1008,4 73 - -

Download your copy of this data-set  here

Our weather-data as stored at Weather Underground. Script developed by Jim McMurry. Adapted for the template by Leuven-Template.eu

You find our weather info also at:

European Weather Network

Weather Underground

European Weather Network

Equipment we use:

Weather-station
Davis VP2

Weather-program
Weather Display

Davis VP2

Weather Display



Hej. Vi har købt ny vejrstation, og er ved at bygge en helt ny vejrside.
Kom snart tilbage og følg udviklingen.
Du kan også komme med kommentarer eller evt. ønsker via "Kontakt" i bunden.